sensor_id;sensor_type;location;lat;lon;timestamp;P1;durP1;ratioP1;P2;durP2;ratioP2
71821;SDS011;64096;52.548;13.406;2022-10-17T06:03:34;4.72;;;3.30;;
71821;SDS011;64096;52.548;13.406;2022-10-17T06:06:04;4.00;;;2.80;;
71821;SDS011;64096;52.548;13.406;2022-10-17T06:08:30;4.72;;;3.42;;
71821;SDS011;64096;52.548;13.406;2022-10-17T06:10:56;5.85;;;3.10;;
71821;SDS011;64096;52.548;13.406;2022-10-17T06:13:22;3.72;;;2.90;;
71821;SDS011;64096;52.548;13.406;2022-10-17T06:15:48;5.07;;;3.42;;
71821;SDS011;64096;52.548;13.406;2022-10-17T06:18:14;4.50;;;3.20;;
71821;SDS011;64096;52.548;13.406;2022-10-17T06:20:40;5.43;;;3.78;;
71821;SDS011;64096;52.548;13.406;2022-10-17T06:23:06;5.00;;;3.10;;
71821;SDS011;64096;52.548;13.406;2022-10-17T06:25:33;5.53;;;3.65;;
71821;SDS011;64096;52.548;13.406;2022-10-17T06:27:59;4.78;;;3.45;;
71821;SDS011;64096;52.548;13.406;2022-10-17T06:30:25;4.50;;;3.08;;
71821;SDS011;64096;52.548;13.406;2022-10-17T06:32:51;4.05;;;3.10;;
71821;SDS011;64096;52.548;13.406;2022-10-17T06:35:18;5.13;;;3.13;;
71821;SDS011;64096;52.548;13.406;2022-10-17T06:37:44;5.07;;;3.20;;
71821;SDS011;64096;52.548;13.406;2022-10-17T06:40:10;5.20;;;3.70;;
71821;SDS011;64096;52.548;13.406;2022-10-17T06:42:37;4.40;;;3.38;;
71821;SDS011;64096;52.548;13.406;2022-10-17T06:45:04;4.35;;;3.10;;
71821;SDS011;64096;52.548;13.406;2022-10-17T06:47:30;4.65;;;3.20;;
71821;SDS011;64096;52.548;13.406;2022-10-17T06:49:56;5.07;;;3.60;;
71821;SDS011;64096;52.548;13.406;2022-10-17T06:52:22;4.55;;;3.20;;
71821;SDS011;64096;52.548;13.406;2022-10-17T06:54:48;7.75;;;4.63;;
71821;SDS011;64096;52.548;13.406;2022-10-17T06:57:15;5.28;;;3.20;;
71821;SDS011;64096;52.548;13.406;2022-10-17T06:59:42;5.22;;;3.58;;
71821;SDS011;64096;52.548;13.406;2022-10-17T07:02:08;4.97;;;3.03;;
71821;SDS011;64096;52.548;13.406;2022-10-17T07:04:35;5.85;;;3.53;;
71821;SDS011;64096;52.548;13.406;2022-10-17T07:07:01;6.47;;;3.15;;
71821;SDS011;64096;52.548;13.406;2022-10-17T07:09:27;5.60;;;3.50;;
71821;SDS011;64096;52.548;13.406;2022-10-17T07:11:53;7.43;;;5.20;;
71821;SDS011;64096;52.548;13.406;2022-10-17T07:14:20;5.32;;;4.00;;
71821;SDS011;64096;52.548;13.406;2022-10-17T07:16:46;6.15;;;3.70;;
71821;SDS011;64096;52.548;13.406;2022-10-17T07:19:12;5.57;;;4.00;;
71821;SDS011;64096;52.548;13.406;2022-10-17T07:21:38;4.88;;;3.58;;
71821;SDS011;64096;52.548;13.406;2022-10-17T07:24:04;5.05;;;3.40;;
71821;SDS011;64096;52.548;13.406;2022-10-17T07:26:31;4.45;;;2.70;;
71821;SDS011;64096;52.548;13.406;2022-10-17T07:28:57;4.78;;;2.85;;
71821;SDS011;64096;52.548;13.406;2022-10-17T07:31:23;4.72;;;2.85;;
71821;SDS011;64096;52.548;13.406;2022-10-17T07:33:50;5.65;;;3.60;;
71821;SDS011;64096;52.548;13.406;2022-10-17T07:36:16;4.90;;;2.90;;
71821;SDS011;64096;52.548;13.406;2022-10-17T07:38:42;5.95;;;3.53;;
71821;SDS011;64096;52.548;13.406;2022-10-17T07:41:09;4.65;;;3.05;;
71821;SDS011;64096;52.548;13.406;2022-10-17T07:43:36;4.82;;;2.78;;
71821;SDS011;64096;52.548;13.406;2022-10-17T07:46:03;4.50;;;2.90;;
71821;SDS011;64096;52.548;13.406;2022-10-17T07:48:30;8.18;;;4.75;;
71821;SDS011;64096;52.548;13.406;2022-10-17T07:50:56;8.90;;;5.43;;
71821;SDS011;64096;52.548;13.406;2022-10-17T07:53:22;8.32;;;5.68;;
71821;SDS011;64096;52.548;13.406;2022-10-17T07:55:48;4.72;;;3.15;;
71821;SDS011;64096;52.548;13.406;2022-10-17T07:58:15;5.03;;;3.53;;
71821;SDS011;64096;52.548;13.406;2022-10-17T08:00:41;4.50;;;2.80;;
71821;SDS011;64096;52.548;13.406;2022-10-17T08:03:08;4.50;;;2.90;;
71821;SDS011;64096;52.548;13.406;2022-10-17T08:05:35;3.97;;;2.67;;
71821;SDS011;64096;52.548;13.406;2022-10-17T08:08:01;4.65;;;2.75;;
71821;SDS011;64096;52.548;13.406;2022-10-17T08:10:27;5.07;;;3.25;;
71821;SDS011;64096;52.548;13.406;2022-10-17T08:12:54;4.28;;;3.00;;
71821;SDS011;64096;52.548;13.406;2022-10-17T08:15:20;4.05;;;2.72;;
71821;SDS011;64096;52.548;13.406;2022-10-17T08:17:47;4.90;;;2.58;;
71821;SDS011;64096;52.548;13.406;2022-10-17T08:20:13;4.53;;;2.60;;
71821;SDS011;64096;52.548;13.406;2022-10-17T08:22:39;4.88;;;2.53;;
71821;SDS011;64096;52.548;13.406;2022-10-17T08:25:05;4.97;;;2.97;;
71821;SDS011;64096;52.548;13.406;2022-10-17T08:27:32;4.18;;;2.88;;
71821;SDS011;64096;52.548;13.406;2022-10-17T08:29:59;4.07;;;2.53;;
71821;SDS011;64096;52.548;13.406;2022-10-17T08:32:25;4.18;;;2.75;;
71821;SDS011;64096;52.548;13.406;2022-10-17T08:34:52;6.18;;;2.90;;
71821;SDS011;64096;52.548;13.406;2022-10-17T08:37:19;4.60;;;2.90;;
71821;SDS011;64096;52.548;13.406;2022-10-17T08:39:45;4.30;;;2.65;;
71821;SDS011;64096;52.548;13.406;2022-10-17T08:44:59;4.82;;;3.03;;
71821;SDS011;64096;52.548;13.406;2022-10-17T08:47:34;4.38;;;2.90;;
71821;SDS011;64096;52.548;13.406;2022-10-17T08:50:02;4.25;;;2.45;;
71821;SDS011;64096;52.548;13.406;2022-10-17T08:52:35;7.53;;;2.88;;
71821;SDS011;64096;52.548;13.406;2022-10-17T08:55:04;4.45;;;2.72;;
71821;SDS011;64096;52.548;13.406;2022-10-17T08:57:34;4.40;;;2.90;;
71821;SDS011;64096;52.548;13.406;2022-10-17T09:00:00;4.88;;;3.30;;
71821;SDS011;64096;52.548;13.406;2022-10-17T09:02:38;4.43;;;2.75;;
71821;SDS011;64096;52.548;13.406;2022-10-17T09:18:32;4.37;;;2.77;;
71821;SDS011;64096;52.548;13.406;2022-10-17T09:23:36;4.18;;;2.72;;
71821;SDS011;64096;52.548;13.406;2022-10-17T09:26:04;3.70;;;2.40;;
71821;SDS011;64096;52.548;13.406;2022-10-17T09:28:36;4.88;;;3.22;;
71821;SDS011;64096;52.548;13.406;2022-10-17T09:31:08;4.40;;;2.70;;
71821;SDS011;64096;52.548;13.406;2022-10-17T09:36:03;3.42;;;1.90;;
71821;SDS011;64096;52.548;13.406;2022-10-17T09:38:35;2.97;;;1.90;;
71821;SDS011;64096;52.548;13.406;2022-10-17T09:41:02;4.73;;;2.70;;
71821;SDS011;64096;52.548;13.406;2022-10-17T09:43:28;3.67;;;2.22;;
71821;SDS011;64096;52.548;13.406;2022-10-17T09:45:58;4.03;;;2.35;;
71821;SDS011;64096;52.548;13.406;2022-10-17T09:48:45;4.10;;;2.70;;
71821;SDS011;64096;52.548;13.406;2022-10-17T09:51:13;4.25;;;2.42;;
71821;SDS011;64096;52.548;13.406;2022-10-17T09:53:44;3.72;;;2.30;;
71821;SDS011;64096;52.548;13.406;2022-10-17T09:56:12;3.92;;;2.60;;
71821;SDS011;64096;52.548;13.406;2022-10-17T10:01:25;4.50;;;2.70;;
71821;SDS011;64096;52.548;13.406;2022-10-17T10:04:14;3.65;;;2.40;;
71821;SDS011;64096;52.548;13.406;2022-10-17T10:06:59;3.95;;;2.28;;
71821;SDS011;64096;52.548;13.406;2022-10-17T10:09:26;3.97;;;1.95;;
71821;SDS011;64096;52.548;13.406;2022-10-17T10:11:53;4.47;;;2.33;;
71821;SDS011;64096;52.548;13.406;2022-10-17T10:14:21;3.67;;;2.10;;
71821;SDS011;64096;52.548;13.406;2022-10-17T10:16:47;4.47;;;2.13;;
71821;SDS011;64096;52.548;13.406;2022-10-17T10:21:53;4.82;;;2.30;;
71821;SDS011;64096;52.548;13.406;2022-10-17T10:24:20;3.08;;;2.05;;
71821;SDS011;64096;52.548;13.406;2022-10-17T10:26:48;3.80;;;2.28;;
71821;SDS011;64096;52.548;13.406;2022-10-17T10:32:15;4.72;;;2.40;;
71821;SDS011;64096;52.548;13.406;2022-10-17T10:34:57;4.22;;;2.55;;
71821;SDS011;64096;52.548;13.406;2022-10-17T10:37:24;5.32;;;2.42;;
71821;SDS011;64096;52.548;13.406;2022-10-17T10:39:58;4.35;;;2.25;;
71821;SDS011;64096;52.548;13.406;2022-10-17T10:44:56;3.47;;;2.10;;
71821;SDS011;64096;52.548;13.406;2022-10-17T10:47:24;3.70;;;2.28;;
71821;SDS011;64096;52.548;13.406;2022-10-17T10:49:52;3.78;;;2.00;;
71821;SDS011;64096;52.548;13.406;2022-10-17T10:52:21;4.07;;;2.13;;
71821;SDS011;64096;52.548;13.406;2022-10-17T10:54:52;3.88;;;2.10;;
71821;SDS011;64096;52.548;13.406;2022-10-17T10:57:19;3.83;;;2.10;;
71821;SDS011;64096;52.548;13.406;2022-10-17T10:59:57;3.95;;;1.92;;
71821;SDS011;64096;52.548;13.406;2022-10-17T11:02:48;4.43;;;2.08;;
71821;SDS011;64096;52.548;13.406;2022-10-17T11:05:13;3.38;;;2.20;;
71821;SDS011;64096;52.548;13.406;2022-10-17T11:07:52;3.20;;;2.00;;
71821;SDS011;64096;52.548;13.406;2022-10-17T11:10:43;3.10;;;1.77;;
71821;SDS011;64096;52.548;13.406;2022-10-17T11:13:15;3.95;;;2.55;;
71821;SDS011;64096;52.548;13.406;2022-10-17T11:15:44;4.22;;;2.40;;
71821;SDS011;64096;52.548;13.406;2022-10-17T11:20:54;3.83;;;1.95;;
71821;SDS011;64096;52.548;13.406;2022-10-17T11:26:01;5.68;;;3.05;;
71821;SDS011;64096;52.548;13.406;2022-10-17T11:28:27;3.47;;;2.05;;
71821;SDS011;64096;52.548;13.406;2022-10-17T11:31:29;3.83;;;2.30;;
71821;SDS011;64096;52.548;13.406;2022-10-17T11:33:51;4.20;;;2.13;;
71821;SDS011;64096;52.548;13.406;2022-10-17T11:36:21;4.40;;;2.10;;
71821;SDS011;64096;52.548;13.406;2022-10-17T11:41:57;3.70;;;1.77;;
71821;SDS011;64096;52.548;13.406;2022-10-17T11:44:30;4.82;;;2.00;;
71821;SDS011;64096;52.548;13.406;2022-10-17T11:47:02;5.50;;;2.15;;
71821;SDS011;64096;52.548;13.406;2022-10-17T11:49:31;4.60;;;2.10;;
71821;SDS011;64096;52.548;13.406;2022-10-17T11:54:50;3.90;;;1.80;;
71821;SDS011;64096;52.548;13.406;2022-10-17T11:59:56;3.35;;;1.80;;
71821;SDS011;64096;52.548;13.406;2022-10-17T12:05:36;3.92;;;1.80;;
71821;SDS011;64096;52.548;13.406;2022-10-17T12:18:51;3.88;;;2.15;;
71821;SDS011;64096;52.548;13.406;2022-10-17T12:24:38;3.42;;;2.10;;
71821;SDS011;64096;52.548;13.406;2022-10-17T12:29:56;3.38;;;2.10;;
71821;SDS011;64096;52.548;13.406;2022-10-17T12:32:23;4.40;;;1.80;;
71821;SDS011;64096;52.548;13.406;2022-10-17T12:34:50;5.53;;;3.50;;
71821;SDS011;64096;52.548;13.406;2022-10-17T12:38:04;4.38;;;2.10;;
71821;SDS011;64096;52.548;13.406;2022-10-17T12:40:03;3.97;;;1.90;;
71821;SDS011;64096;52.548;13.406;2022-10-17T12:42:49;3.90;;;2.25;;
71821;SDS011;64096;52.548;13.406;2022-10-17T12:45:43;3.65;;;1.92;;
71821;SDS011;64096;52.548;13.406;2022-10-17T12:48:02;4.03;;;2.25;;
71821;SDS011;64096;52.548;13.406;2022-10-17T12:50:58;3.30;;;2.17;;
71821;SDS011;64096;52.548;13.406;2022-10-17T12:53:17;2.55;;;1.60;;
71821;SDS011;64096;52.548;13.406;2022-10-17T12:55:46;3.03;;;1.90;;
71821;SDS011;64096;52.548;13.406;2022-10-17T12:58:15;4.50;;;2.13;;
71821;SDS011;64096;52.548;13.406;2022-10-17T13:03:12;3.83;;;2.20;;
71821;SDS011;64096;52.548;13.406;2022-10-17T13:05:40;3.67;;;1.90;;
71821;SDS011;64096;52.548;13.406;2022-10-17T13:08:07;4.45;;;2.50;;
71821;SDS011;64096;52.548;13.406;2022-10-17T13:10:39;3.92;;;2.10;;
71821;SDS011;64096;52.548;13.406;2022-10-17T13:15:31;5.25;;;2.30;;
71821;SDS011;64096;52.548;13.406;2022-10-17T13:17:59;5.57;;;2.17;;
71821;SDS011;64096;52.548;13.406;2022-10-17T13:20:26;4.97;;;2.47;;
71821;SDS011;64096;52.548;13.406;2022-10-17T13:22:53;3.90;;;2.20;;
71821;SDS011;64096;52.548;13.406;2022-10-17T13:25:20;4.88;;;2.35;;
71821;SDS011;64096;52.548;13.406;2022-10-17T13:27:47;2.90;;;2.00;;
71821;SDS011;64096;52.548;13.406;2022-10-17T13:30:20;4.25;;;2.80;;
71821;SDS011;64096;52.548;13.406;2022-10-17T13:32:46;4.30;;;2.83;;
71821;SDS011;64096;52.548;13.406;2022-10-17T13:35:13;4.63;;;2.90;;
71821;SDS011;64096;52.548;13.406;2022-10-17T13:37:41;4.15;;;2.30;;
71821;SDS011;64096;52.548;13.406;2022-10-17T13:40:15;4.05;;;2.35;;
71821;SDS011;64096;52.548;13.406;2022-10-17T13:42:41;4.07;;;2.00;;
71821;SDS011;64096;52.548;13.406;2022-10-17T13:45:27;5.07;;;2.25;;
71821;SDS011;64096;52.548;13.406;2022-10-17T13:47:54;4.70;;;2.03;;
71821;SDS011;64096;52.548;13.406;2022-10-17T13:50:31;4.40;;;2.05;;
71821;SDS011;64096;52.548;13.406;2022-10-17T13:53:31;3.85;;;2.00;;
71821;SDS011;64096;52.548;13.406;2022-10-17T13:56:35;3.40;;;2.22;;
71821;SDS011;64096;52.548;13.406;2022-10-17T13:58:49;4.13;;;2.20;;
